Airfield :
LOGIN :

Register | Disclaimer

   EN    FR    IT 

 










Legend :    VFR   Marginal VFR   IFR   Intensive IFR   Very Intensive IFR
Visi :
Ceiling :
>= 8 km
>= 3000ft
5 to 8 km
1000 to 3000 ft
1500m to 5 km
500 to 1000 ft
800 to 1500m
200 to 500 ft
< 800m
< 200 ft
Symbols :   Thunderstorms  Fog  Heavy snow  Heavy precipitations  Wind > 20 kt
SIGMETs :     Misc.  Thunderstorms  Icing  Turbulence  Mountain Waves  Volcanic Ashes







- Airport Elevation : 27 ft
- IATA code : PMI


LEPA - Palma de Mallorca

CURRENT METAR :
  • 162200Z 07004KT 9999 FEW030 17/15 Q1025 NOSIG

EXPIRED METARs :
  • 162130Z 08003KT 9999 FEW030 17/15 Q1025 NOSIG
  • 162100Z 07003KT 9999 FEW030 18/15 Q1025 NOSIG
  • 162030Z 05003KT 010V070 9999 FEW030 18/16 Q1025 NOSIG
  • 162000Z 06004KT 9999 FEW030 19/16 Q1025 NOSIG
  • 161930Z 04004KT 9999 FEW030 20/16 Q1025 NOSIG
  • 161900Z 05003KT 010V080 9999 FEW030 SCT041 20/16 Q1025 NOSIG

TAF TAF LEPA
Valid from the 16 at 18:00 until the 17 at 18:00 UTC


161700Z 1618/1718 22010KT 9999 SCT030 TX27/1712Z TN15/1706Z
BECMG 1618/1620 04005KT
TEMPO 1700/1706 BKN020
BECMG 1710/1712 21010KT
No reported NOTAMs for that airfield.



MET'MAP, your aeronautical weather chart ! - Copyright ORBIFLY December 2007 - Disclaimer

ORBIFLY MET'MAP TEAM :

Programming & Development : Alexandra Zaïnal
Concept & Development : Baudouin d'Aumeries
Co-Development & Prog : Marc-Olivier Méhu
Technical & hardware support : Manuel Goepfert

Contact : metmap@orbifly.com




SOURCES & CREDITS :

   NOAA